Terminal Aerodrome Forecast
Issued by NWS

Home | Current Version | Previous Version | Text Only | Print | Product List | Glossary On
Versions: 1 2 3 4 5 6 7 8 9 10 11 12 13 14 15
445
FTUS43 KAPX 062321
TAFMBL
TAF
KMBL 062321Z 0700/0724 23006KT P6SM OVC020
     FM070200 20009KT P6SM OVC120
     FM070900 21009KT P6SM OVC100 WS020/21036KT
     FM071600 17009KT 4SM BR OVC015
      AMD LTD TO CLD VIS AND WIND=

USA.gov is the U.S. government's official web portal to all federal, state and local government web resources and services.